Time;durP1;ratioP1;P1;durP2;ratioP2;P2;SDS_P1;SDS_P2;PMS_P1;PMS_P2;Temp;Humidity;BMP_temperature;BMP_pressure;BME280_temperature;BME280_humidity;BME280_pressure;Samples;Min_cycle;Max_cycle;Signal;HPM_P1;HPM_P2
2021/06/27 00:00:33;;;;;;;8.38;7.15;;;;;;;14.44;69.23;101478.48;1671221;85;21068;-88
2021/06/27 00:03:08;;;;;;;8.08;7.12;;;;;;;14.42;69.29;101477.11;1670783;85;21315;-88
2021/06/27 00:05:36;;;;;;;9.85;7.22;;;;;;;14.39;69.35;101473.95;1679299;83;21001;-87
2021/06/27 00:08:04;;;;;;;9.98;6.78;;;;;;;14.38;69.45;101476.16;1671169;85;21067;-87
2021/06/27 00:10:34;;;;;;;9.33;6.95;;;;;;;14.36;69.46;101473.02;1724041;82;21701;-87
2021/06/27 00:13:01;;;;;;;9.03;7.12;;;;;;;14.33;69.51;101474.27;1724885;83;21048;-87
2021/06/27 00:15:36;;;;;;;8.75;6.92;;;;;;;14.31;69.56;101470.26;1725944;83;21031;-87
2021/06/27 00:18:03;;;;;;;8.20;7.30;;;;;;;14.27;69.61;101469.73;1725695;83;21274;-87
2021/06/27 00:20:31;;;;;;;9.50;7.33;;;;;;;14.23;69.63;101462.59;1726073;83;21460;-87
2021/06/27 00:22:58;;;;;;;12.82;7.15;;;;;;;14.19;69.76;101462.95;1726054;83;21776;-87
2021/06/27 00:25:28;;;;;;;8.58;7.40;;;;;;;14.17;69.79;101462.44;1700333;83;21078;-87
2021/06/27 00:27:55;;;;;;;8.73;7.17;;;;;;;14.13;69.85;101465.48;1726043;83;21525;-87
2021/06/27 00:30:22;;;;;;;10.80;7.37;;;;;;;14.10;69.92;101465.41;1725968;83;21069;-87
2021/06/27 00:32:49;;;;;;;9.33;6.45;;;;;;;14.10;70.04;101471.14;1725873;83;21098;-87
2021/06/27 00:35:17;;;;;;;8.63;7.42;;;;;;;14.09;70.13;101465.36;1726202;83;21749;-87
2021/06/27 00:37:45;;;;;;;10.48;7.87;;;;;;;14.07;70.13;101470.62;1725922;83;21032;-87
2021/06/27 00:40:17;;;;;;;10.30;7.78;;;;;;;14.05;70.26;101471.02;1726059;83;21039;-87
2021/06/27 00:42:44;;;;;;;8.23;6.95;;;;;;;14.02;70.32;101474.94;1726068;83;21204;-88
2021/06/27 00:45:12;;;;;;;8.23;6.97;;;;;;;13.98;70.37;101475.30;1726032;83;21024;-88
2021/06/27 00:47:40;;;;;;;12.18;7.62;;;;;;;13.97;70.45;101471.28;1725902;83;21768;-88
2021/06/27 00:50:14;;;;;;;9.38;8.10;;;;;;;13.95;70.54;101473.01;1725936;83;21055;-86
2021/06/27 00:52:51;;;;;;;8.55;7.30;;;;;;;13.92;70.56;101484.39;1724794;82;21521;-86
2021/06/27 00:55:19;;;;;;;14.10;7.83;;;;;;;13.91;70.66;101483.95;1721639;83;21064;-86
2021/06/27 00:57:51;;;;;;;10.88;8.13;;;;;;;13.89;70.69;101488.32;1725967;83;21020;-86
2021/06/27 01:00:24;;;;;;;10.43;8.40;;;;;;;13.85;70.69;101486.47;1726255;83;21801;-87
2021/06/27 01:02:51;;;;;;;9.45;7.87;;;;;;;13.80;70.78;101485.02;1725994;83;21020;-86
2021/06/27 01:05:29;;;;;;;12.15;7.83;;;;;;;13.77;70.86;101487.58;1726022;82;21044;-87
2021/06/27 01:08:02;;;;;;;10.95;8.63;;;;;;;13.74;70.86;101478.67;1725838;83;21072;-87
2021/06/27 01:10:31;;;;;;;9.78;8.20;;;;;;;13.72;70.99;101481.31;1725699;82;21470;-87
2021/06/27 01:12:58;;;;;;;9.13;7.65;;;;;;;13.70;71.04;101479.46;1724533;83;22499;-87
2021/06/27 01:15:24;;;;;;;9.90;7.62;;;;;;;13.66;71.04;101478.48;1723432;83;21082;-87
2021/06/27 01:17:53;;;;;;;8.78;7.35;;;;;;;13.61;71.04;101482.80;1723670;83;21020;-84
2021/06/27 01:20:23;;;;;;;14.30;7.90;;;;;;;13.56;71.10;101482.67;1723624;82;21076;-88
2021/06/27 01:23:03;;;;;;;9.28;7.47;;;;;;;13.52;71.21;101487.86;1724033;83;21167;-87
2021/06/27 01:25:37;;;;;;;11.15;8.03;;;;;;;13.49;71.31;101486.45;1723594;82;21767;-84
2021/06/27 01:28:04;;;;;;;8.55;7.75;;;;;;;13.47;71.49;101486.84;1723659;83;21545;-84
2021/06/27 01:30:32;;;;;;;10.68;8.75;;;;;;;13.44;71.54;101483.71;1723534;83;21059;-84
2021/06/27 01:33:03;;;;;;;13.80;8.00;;;;;;;13.44;71.67;101480.15;1723461;83;21581;-84
2021/06/27 01:35:30;;;;;;;14.43;8.35;;;;;;;13.42;71.71;101478.81;1723177;83;21059;-84
2021/06/27 01:37:57;;;;;;;11.83;9.18;;;;;;;13.44;71.85;101481.47;1723567;83;21749;-84
2021/06/27 01:40:26;;;;;;;11.75;8.90;;;;;;;13.44;71.92;101481.47;1703394;82;21029;-84
2021/06/27 01:43:08;;;;;;;9.45;8.13;;;;;;;13.43;71.93;101481.02;1723439;83;21612;-84
2021/06/27 01:45:37;;;;;;;15.70;8.15;;;;;;;13.40;71.99;101476.53;1723606;83;20965;-84
2021/06/27 01:48:06;;;;;;;12.43;8.63;;;;;;;13.41;72.13;101482.30;1723487;82;21075;-84
2021/06/27 01:50:33;;;;;;;10.38;7.67;;;;;;;13.41;72.21;101478.33;1723491;83;22647;-84
2021/06/27 01:53:00;;;;;;;10.88;8.13;;;;;;;13.39;72.26;101482.25;1723569;83;21060;-84
2021/06/27 01:55:27;;;;;;;11.43;8.65;;;;;;;13.40;72.35;101481.41;1723424;83;21119;-84
2021/06/27 01:57:54;;;;;;;11.08;8.33;;;;;;;13.40;72.42;101480.49;1723601;82;21134;-84
2021/06/27 02:00:24;;;;;;;13.40;8.05;;;;;;;13.41;72.47;101479.22;1723168;82;21131;-84
2021/06/27 02:02:51;;;;;;;12.82;8.03;;;;;;;13.41;72.58;101475.25;1723658;83;21797;-86
2021/06/27 02:05:18;;;;;;;11.03;7.45;;;;;;;13.43;72.62;101477.05;1723642;83;21100;-85
2021/06/27 02:07:45;;;;;;;9.25;7.85;;;;;;;13.44;72.71;101475.78;1723675;83;21016;-85
2021/06/27 02:10:16;;;;;;;9.70;7.62;;;;;;;13.45;72.69;101474.91;1723720;83;21573;-85
2021/06/27 02:12:43;;;;;;;11.18;8.10;;;;;;;13.48;72.70;101476.75;1723427;83;21039;-85
2021/06/27 02:15:12;;;;;;;9.95;7.70;;;;;;;13.53;72.73;101476.00;1723686;83;22637;-85
2021/06/27 02:17:40;;;;;;;10.82;8.40;;;;;;;13.54;72.76;101479.09;1723179;83;21044;-84
2021/06/27 02:20:08;;;;;;;13.10;8.93;;;;;;;13.56;72.72;101480.46;1722920;82;21517;-86
2021/06/27 02:22:35;;;;;;;12.25;8.08;;;;;;;13.55;72.65;101475.61;1723865;83;21001;-86
2021/06/27 02:25:02;;;;;;;10.88;8.15;;;;;;;13.56;72.73;101472.53;1724005;83;21004;-85
2021/06/27 02:27:28;;;;;;;10.53;8.28;;;;;;;13.56;72.75;101473.85;1723846;83;22637;-85
2021/06/27 02:29:55;;;;;;;11.97;7.80;;;;;;;13.56;72.78;101464.59;1723764;83;21027;-85
2021/06/27 02:32:22;;;;;;;11.73;7.62;;;;;;;13.59;72.81;101462.03;1723867;83;21051;-85
2021/06/27 02:34:49;;;;;;;9.28;7.30;;;;;;;13.60;72.83;101462.05;1723779;83;21123;-84
2021/06/27 02:37:16;;;;;;;13.22;7.97;;;;;;;13.61;72.89;101458.99;1723871;83;21075;-84
2021/06/27 02:39:43;;;;;;;8.78;7.87;;;;;;;13.64;73.01;101462.12;1723830;82;21748;-84
2021/06/27 02:42:09;;;;;;;11.97;7.62;;;;;;;13.67;72.98;101455.16;1723565;83;21612;-85
2021/06/27 02:44:36;;;;;;;12.43;7.95;;;;;;;13.73;73.06;101456.62;1723919;83;21435;-85
2021/06/27 02:47:03;;;;;;;9.80;7.78;;;;;;;13.78;73.13;101448.37;1723792;83;21024;-85
2021/06/27 02:49:30;;;;;;;12.05;7.33;;;;;;;13.84;73.10;101450.26;1723827;82;21584;-85
2021/06/27 02:51:57;;;;;;;9.23;7.50;;;;;;;13.89;73.05;101448.62;1723579;83;21739;-87
2021/06/27 02:54:24;;;;;;;10.90;7.47;;;;;;;13.96;73.08;101449.63;1723429;83;21005;-87
2021/06/27 02:56:50;;;;;;;11.05;7.62;;;;;;;14.02;73.05;101449.80;1723480;83;21056;-87
2021/06/27 02:59:17;;;;;;;10.10;7.10;;;;;;;14.10;73.07;101448.19;1723688;83;20980;-87
2021/06/27 03:01:44;;;;;;;10.90;7.00;;;;;;;14.19;73.04;101452.80;1723825;83;21020;-86
2021/06/27 03:04:21;;;;;;;8.45;6.37;;;;;;;14.27;72.99;101455.17;1723587;83;22586;-84
2021/06/27 03:06:49;;;;;;;8.03;7.12;;;;;;;14.35;72.94;101454.01;1723518;82;21035;-84
2021/06/27 03:09:16;;;;;;;9.30;7.33;;;;;;;14.45;72.89;101457.73;1723607;83;21473;-86
2021/06/27 03:11:43;;;;;;;8.35;6.67;;;;;;;14.55;72.79;101460.61;1723661;83;21188;-86
2021/06/27 03:14:10;;;;;;;8.00;7.03;;;;;;;14.65;72.75;101456.84;1723335;83;21008;-85
2021/06/27 03:16:36;;;;;;;9.15;7.08;;;;;;;14.74;72.66;101453.94;1723292;83;21833;-84
2021/06/27 03:19:03;;;;;;;9.08;6.60;;;;;;;14.87;72.63;101452.86;1723654;83;21119;-85
2021/06/27 03:21:30;;;;;;;9.75;7.25;;;;;;;15.01;72.55;101440.73;1723358;83;21060;-84
2021/06/27 03:23:57;;;;;;;10.20;7.15;;;;;;;15.15;72.46;101441.88;1723543;83;21016;-84
2021/06/27 03:26:23;;;;;;;8.65;6.67;;;;;;;15.32;72.28;101451.44;1723651;83;21481;-85
2021/06/27 03:28:51;;;;;;;10.40;6.85;;;;;;;15.55;72.33;101449.59;1723845;83;21744;-84
2021/06/27 03:31:18;;;;;;;9.05;5.90;;;;;;;15.83;72.38;101448.73;1723559;82;21004;-86
2021/06/27 03:33:45;;;;;;;8.35;6.15;;;;;;;17.03;74.80;101443.56;1723624;83;21079;-86
2021/06/27 03:36:11;;;;;;;7.25;5.92;;;;;;;18.77;73.26;101437.50;1723583;83;21458;-86
2021/06/27 03:41:20;;;;;;;9.18;6.42;;;;;;;21.25;69.04;101431.50;1708785;83;40102;-86
2021/06/27 03:43:43;;;;;;;8.75;5.28;;;;;;;21.23;65.95;101423.93;1722736;83;21560;-86
2021/06/27 03:46:12;;;;;;;7.58;5.67;;;;;;;20.80;64.68;101426.02;1723652;83;21050;-89
2021/06/27 03:48:38;;;;;;;5.05;4.47;;;;;;;20.56;64.44;101429.27;1723818;83;22056;-87
2021/06/27 03:51:05;;;;;;;6.03;4.20;;;;;;;20.89;65.25;101427.30;1723897;83;21131;-87
2021/06/27 03:53:32;;;;;;;5.85;4.05;;;;;;;22.43;66.08;101413.73;1723908;83;21751;-87
2021/06/27 03:55:58;;;;;;;7.12;4.12;;;;;;;24.37;64.98;101416.66;1724010;83;21114;-87
2021/06/27 03:58:26;;;;;;;5.53;4.00;;;;;;;26.42;62.78;101414.59;1723823;83;21013;-88
2021/06/27 04:00:53;;;;;;;8.00;4.20;;;;;;;28.17;59.77;101414.56;1723645;83;21571;-86
2021/06/27 04:03:21;;;;;;;8.03;3.98;;;;;;;29.59;57.41;101410.59;1723565;83;21083;-85
2021/06/27 04:05:48;;;;;;;6.08;3.60;;;;;;;30.84;55.09;101406.66;1723659;83;22528;-86
2021/06/27 04:08:15;;;;;;;6.83;3.87;;;;;;;32.05;52.84;101402.27;1723581;83;20973;-87
2021/06/27 04:10:42;;;;;;;5.20;3.80;;;;;;;33.09;50.67;101400.88;1723672;83;21533;-87
2021/06/27 04:13:08;;;;;;;5.58;3.60;;;;;;;34.02;48.88;101399.77;1723365;83;21164;-87
2021/06/27 04:15:35;;;;;;;6.92;3.85;;;;;;;34.83;46.94;101390.02;1723597;83;20957;-89
2021/06/27 04:18:02;;;;;;;6.37;3.80;;;;;;;35.49;44.73;101386.01;1723886;83;21781;-90
2021/06/27 04:20:29;;;;;;;4.85;3.70;;;;;;;35.63;43.12;101393.64;1723818;83;21115;-91
2021/06/27 04:22:55;;;;;;;3.52;3.00;;;;;;;35.88;41.86;101386.94;1724090;82;21056;-92
2021/06/27 04:25:22;;;;;;;4.50;3.50;;;;;;;35.35;40.23;101388.36;1723733;83;21257;-90
2021/06/27 04:27:52;;;;;;;6.35;3.60;;;;;;;33.70;39.34;101388.16;1723770;83;21056;-90
2021/06/27 04:30:19;;;;;;;4.33;3.10;;;;;;;31.58;39.75;101382.94;1723626;83;21771;-91
2021/06/27 04:32:46;;;;;;;3.80;3.33;;;;;;;29.89;40.53;101391.20;1722104;80;21091;-89
2021/06/27 04:35:14;;;;;;;4.30;3.45;;;;;;;28.50;41.26;101391.59;1713003;83;21039;-88
2021/06/27 04:37:41;;;;;;;5.87;3.98;;;;;;;27.29;42.16;101387.50;1712904;83;21117;-88
2021/06/27 04:40:09;;;;;;;4.17;3.40;;;;;;;26.38;43.28;101390.85;1713170;83;21003;-88
2021/06/27 04:42:36;;;;;;;7.03;3.67;;;;;;;25.72;44.17;101390.06;1712622;83;21763;-87
2021/06/27 04:45:03;;;;;;;5.05;3.45;;;;;;;25.13;44.89;101392.03;1712771;83;21141;-85
2021/06/27 04:47:29;;;;;;;4.65;3.80;;;;;;;24.58;45.57;101403.68;1712573;83;21082;-85
2021/06/27 04:49:56;;;;;;;5.45;3.55;;;;;;;24.07;46.28;101393.99;1712641;83;21117;-85
2021/06/27 04:52:23;;;;;;;5.37;3.45;;;;;;;23.60;47.05;101392.64;1680355;85;21082;-85
2021/06/27 04:54:50;;;;;;;5.50;3.30;;;;;;;23.27;47.64;101396.81;1712329;83;21905;-85
2021/06/27 04:57:16;;;;;;;3.72;3.35;;;;;;;22.97;48.26;101388.80;1712677;83;21126;-84
2021/06/27 04:59:43;;;;;;;6.03;3.22;;;;;;;22.82;48.92;101392.60;1712590;83;21062;-85
2021/06/27 05:02:09;;;;;;;3.98;3.33;;;;;;;22.70;49.37;101386.52;1712689;83;21016;-86
2021/06/27 05:04:36;;;;;;;4.15;3.10;;;;;;;22.65;49.66;101384.34;1712810;83;21019;-86
2021/06/27 05:07:03;;;;;;;4.00;3.50;;;;;;;22.66;50.01;101385.26;1712562;83;21920;-85
2021/06/27 05:09:30;;;;;;;4.28;3.35;;;;;;;22.79;50.23;101391.33;1680287;85;21625;-83
2021/06/27 05:11:57;;;;;;;6.85;3.55;;;;;;;23.13;50.47;101389.02;1712552;83;21117;-85
2021/06/27 05:14:23;;;;;;;4.97;3.20;;;;;;;23.61;50.36;101376.05;1710849;83;21009;-84
2021/06/27 05:16:50;;;;;;;5.22;3.70;;;;;;;24.17;49.97;101378.07;1710276;83;21514;-85
2021/06/27 05:19:17;;;;;;;4.60;3.30;;;;;;;24.69;49.56;101370.67;1710589;83;21794;-87
2021/06/27 05:21:44;;;;;;;4.65;3.65;;;;;;;25.21;49.00;101368.49;1703821;83;21619;-87
2021/06/27 05:24:11;;;;;;;3.50;3.02;;;;;;;25.88;48.29;101367.58;1702314;83;21060;-90
2021/06/27 05:26:37;;;;;;;4.65;3.87;;;;;;;26.29;47.66;101373.59;1702550;84;21060;-89
2021/06/27 05:29:04;;;;;;;4.97;3.45;;;;;;;26.44;47.15;101369.06;1702663;84;21070;-92
2021/06/27 05:31:41;;;;;;;5.08;3.08;;;;;;;27.00;47.48;101365.48;1702658;84;21870;-92
2021/06/27 05:34:07;;;;;;;5.87;3.60;;;;;;;27.87;45.99;101361.98;1702623;84;21174;-89
2021/06/27 05:36:37;;;;;;;9.13;3.75;;;;;;;28.37;45.50;101364.59;1702555;84;21009;-91
2021/06/27 05:39:07;;;;;;;4.72;2.85;;;;;;;30.26;45.84;101354.20;1694353;82;21046;-96
2021/06/27 05:41:34;;;;;;;5.20;3.05;;;;;;;32.62;44.05;101357.72;1690459;81;21176;-96
2021/06/27 05:44:07;;;;;;;4.55;2.92;;;;;;;34.42;41.87;101351.25;1687181;85;21928;-96
2021/06/27 05:46:34;;;;;;;4.80;3.00;;;;;;;34.80;39.14;101352.83;1687221;85;21008;-95
2021/06/27 05:49:03;;;;;;;3.27;2.80;;;;;;;33.47;37.75;101352.22;1687158;85;21610;-92
2021/06/27 05:51:30;;;;;;;4.62;2.92;;;;;;;32.01;37.78;101353.87;1676735;85;21367;-93
2021/06/27 05:53:56;;;;;;;3.80;3.02;;;;;;;30.79;38.33;101351.18;1687370;84;21062;-96
2021/06/27 05:56:23;;;;;;;4.10;3.30;;;;;;;29.70;39.02;101355.86;1687154;84;21736;-96
2021/06/27 05:58:52;;;;;;;4.28;3.00;;;;;;;28.92;39.80;101349.28;1686906;84;21579;-95
2021/06/27 06:01:23;;;;;;;4.53;3.37;;;;;;;28.31;40.48;101349.95;1686918;84;21576;-94
2021/06/27 06:03:50;;;;;;;5.55;3.77;;;;;;;27.83;41.16;101346.33;1662958;85;21788;-92
2021/06/27 06:06:17;;;;;;;4.17;3.52;;;;;;;27.46;41.70;101344.09;1663219;85;21066;-94
2021/06/27 06:08:47;;;;;;;4.40;3.72;;;;;;;27.17;42.34;101343.28;1686937;85;21846;-92
2021/06/27 06:11:14;;;;;;;3.67;3.10;;;;;;;27.07;42.56;101339.16;1686304;83;21047;-96
2021/06/27 06:13:43;;;;;;;6.22;3.12;;;;;;;26.94;43.01;101335.50;1690353;83;21476;-96
2021/06/27 06:16:10;;;;;;;5.22;3.60;;;;;;;26.94;43.14;101342.73;1691520;83;21075;-94
2021/06/27 06:18:37;;;;;;;5.70;3.33;;;;;;;26.81;43.28;101347.66;1715595;83;21070;-94
2021/06/27 06:21:04;;;;;;;3.42;3.12;;;;;;;26.49;43.24;101350.91;1715446;83;21759;-88
2021/06/27 06:23:30;;;;;;;11.35;2.98;;;;;;;26.19;43.60;101354.10;1715386;83;21075;-91
2021/06/27 06:26:00;;;;;;;3.27;2.87;;;;;;;25.99;44.06;101353.34;1715524;83;21067;-93
2021/06/27 06:28:27;;;;;;;4.67;3.12;;;;;;;25.94;44.39;101353.49;1690871;83;21095;-89
2021/06/27 06:30:54;;;;;;;4.70;3.50;;;;;;;25.74;44.43;101352.68;1715413;83;21527;-90
2021/06/27 06:33:21;;;;;;;7.72;5.45;;;;;;;25.65;44.73;101356.98;1715414;83;22594;-91
2021/06/27 06:35:55;;;;;;;6.10;5.12;;;;;;;25.61;44.92;101357.53;1715114;83;21631;-91
2021/06/27 06:38:22;;;;;;;4.12;3.60;;;;;;;25.67;45.27;101360.52;1685945;85;21611;-90
2021/06/27 06:40:49;;;;;;;4.05;3.30;;;;;;;25.95;45.37;101362.47;1686094;85;21078;-91
2021/06/27 06:43:15;;;;;;;4.60;3.60;;;;;;;26.23;45.34;101362.52;1685422;85;21655;-95
2021/06/27 06:45:42;;;;;;;6.53;3.90;;;;;;;26.63;45.32;101359.06;1686366;85;22420;-94
2021/06/27 06:48:09;;;;;;;3.80;3.15;;;;;;;26.98;44.77;101370.06;1661989;85;21501;-96
2021/06/27 06:50:36;;;;;;;5.72;3.47;;;;;;;27.10;44.36;101366.05;1686117;85;21042;-94
2021/06/27 06:53:03;;;;;;;3.10;2.80;;;;;;;27.23;44.23;101370.56;1686329;85;21106;-89
2021/06/27 06:55:56;;;;;;;6.30;3.10;;;;;;;27.31;44.00;101375.26;1686167;85;21106;-95
2021/06/27 06:58:23;;;;;;;3.47;2.87;;;;;;;27.21;43.64;101365.69;1685518;85;21788;-93
2021/06/27 07:00:50;;;;;;;5.35;2.87;;;;;;;27.09;43.88;101365.17;1685230;85;21090;-94
2021/06/27 07:03:17;;;;;;;5.65;3.67;;;;;;;26.98;44.01;101366.01;1716119;82;21757;-91
2021/06/27 07:06:18;;;;;;;4.50;3.10;;;;;;;26.85;44.08;101366.88;1734459;82;20999;-92
2021/06/27 07:08:45;;;;;;;4.42;3.10;;;;;;;26.70;44.27;101367.39;1734747;82;21059;-91
2021/06/27 07:11:12;;;;;;;4.55;3.12;;;;;;;26.53;44.33;101370.59;1710500;82;22591;-89
2021/06/27 07:13:39;;;;;;;4.95;3.30;;;;;;;26.44;44.60;101376.28;1733751;82;21042;-91
2021/06/27 07:16:06;;;;;;;5.10;3.30;;;;;;;26.47;44.74;101370.80;1734334;82;20996;-94
2021/06/27 07:18:36;;;;;;;3.92;3.40;;;;;;;26.56;44.79;101376.78;1707121;84;21213;-94
2021/06/27 07:21:03;;;;;;;5.62;3.80;;;;;;;26.65;44.78;101373.39;1646909;86;21162;-91
2021/06/27 07:23:31;;;;;;;5.95;4.25;;;;;;;26.64;44.61;101377.05;1740183;82;21802;-95
2021/06/27 07:25:57;;;;;;;4.67;3.35;;;;;;;26.54;44.46;101377.75;1740582;82;21069;-95
2021/06/27 07:28:24;;;;;;;4.50;3.87;;;;;;;26.45;44.56;101382.11;1741459;81;21010;-92
2021/06/27 07:30:51;;;;;;;6.28;4.33;;;;;;;26.35;44.66;101380.14;1740698;82;21726;-90
2021/06/27 07:33:19;;;;;;;4.65;3.70;;;;;;;26.18;44.73;101389.66;1707185;82;21003;-93
2021/06/27 07:35:45;;;;;;;5.05;3.83;;;;;;;26.00;44.88;101383.45;1715104;83;21768;-94
2021/06/27 07:38:12;;;;;;;5.65;3.58;;;;;;;25.93;44.95;101387.25;1715186;83;21110;-91
2021/06/27 07:40:40;;;;;;;4.75;3.80;;;;;;;25.76;45.22;101389.05;1715244;82;20983;-94
2021/06/27 07:43:06;;;;;;;5.78;3.58;;;;;;;25.71;45.51;101390.51;1695532;83;21831;-92
2021/06/27 07:45:34;;;;;;;5.53;3.50;;;;;;;25.67;45.56;101393.34;1715432;83;21034;-87
2021/06/27 07:48:00;;;;;;;4.65;3.85;;;;;;;25.63;45.88;101395.23;1721658;83;21789;-91
2021/06/27 07:50:27;;;;;;;4.33;3.55;;;;;;;25.60;45.86;101398.92;1706942;84;21023;-91
2021/06/27 07:52:54;;;;;;;5.53;3.42;;;;;;;25.54;46.05;101399.06;1658428;86;21630;-93
2021/06/27 07:55:20;;;;;;;3.75;3.20;;;;;;;25.58;46.20;101397.17;1740436;81;21547;-93
2021/06/27 07:57:47;;;;;;;5.15;3.60;;;;;;;25.70;46.29;101390.10;1740461;82;21061;-90
2021/06/27 08:00:15;;;;;;;4.33;3.70;;;;;;;25.78;46.01;101396.16;1740220;82;21725;-92
2021/06/27 08:02:42;;;;;;;6.08;3.98;;;;;;;25.72;45.94;101400.85;1707060;84;21011;-94
2021/06/27 08:05:09;;;;;;;6.60;3.47;;;;;;;25.72;46.17;101399.50;1715520;83;21042;-91
2021/06/27 08:07:35;;;;;;;6.20;3.87;;;;;;;25.84;46.13;101395.56;1714997;83;21090;-89
2021/06/27 08:10:04;;;;;;;5.75;3.67;;;;;;;26.03;46.26;101390.56;1720718;83;21031;-92
2021/06/27 08:12:31;;;;;;;6.15;4.20;;;;;;;26.33;46.22;101394.16;1739681;82;21660;-91
2021/06/27 08:14:58;;;;;;;4.50;4.05;;;;;;;26.70;46.10;101391.69;1722547;80;21516;-91
2021/06/27 08:17:25;;;;;;;6.67;4.85;;;;;;;26.83;45.44;101387.66;1707099;83;21028;-92
2021/06/27 08:20:00;;;;;;;4.90;4.20;;;;;;;27.04;45.26;101389.23;1676746;85;21050;-93
2021/06/27 08:22:34;;;;;;;6.70;3.35;;;;;;;27.09;44.97;101398.08;1675995;83;21052;-89
2021/06/27 08:25:04;;;;;;;4.67;3.40;;;;;;;27.24;45.14;101397.55;1687373;84;21858;-90
2021/06/27 08:27:31;;;;;;;7.78;3.80;;;;;;;27.46;44.83;101400.88;1677235;85;21583;-90
2021/06/27 08:29:58;;;;;;;5.40;3.72;;;;;;;27.65;44.70;101399.78;1710020;83;21066;-90
2021/06/27 08:32:25;;;;;;;5.33;3.90;;;;;;;27.77;44.38;101399.80;1697651;84;21119;-88
2021/06/27 08:34:53;;;;;;;4.05;3.37;;;;;;;27.94;44.10;101401.43;1660290;84;21063;-88
2021/06/27 08:37:20;;;;;;;5.80;3.80;;;;;;;28.10;44.02;101399.05;1700536;82;21999;-90
2021/06/27 08:39:47;;;;;;;5.17;3.92;;;;;;;28.31;43.61;101394.62;1709502;83;21032;-92
2021/06/27 08:42:20;;;;;;;4.20;3.12;;;;;;;28.29;42.64;101398.73;1709246;83;21066;-92
2021/06/27 08:44:50;;;;;;;6.78;4.83;;;;;;;28.27;42.78;101394.34;1708439;83;21616;-91
2021/06/27 08:47:18;;;;;;;7.58;4.58;;;;;;;28.44;43.01;101401.32;1709179;83;21008;-88
2021/06/27 08:49:49;;;;;;;3.10;2.80;;;;;;;28.71;42.94;101391.70;1705589;84;21776;-93
2021/06/27 08:52:17;;;;;;;6.30;3.40;;;;;;;28.84;42.50;101394.80;1708995;83;20997;-90
2021/06/27 08:54:47;;;;;;;5.53;3.10;;;;;;;28.81;41.94;101398.98;1677138;84;21023;-92
2021/06/27 08:57:14;;;;;;;3.50;3.05;;;;;;;28.54;41.59;101394.22;1708647;83;21548;-87
2021/06/27 08:59:40;;;;;;;5.17;2.77;;;;;;;28.16;41.52;101393.39;1709265;83;21032;-92
2021/06/27 09:02:12;;;;;;;4.50;3.10;;;;;;;27.68;42.08;101394.23;1709269;83;21763;-92
2021/06/27 09:04:40;;;;;;;4.60;3.02;;;;;;;27.34;42.26;101392.26;1708123;84;21492;-89
2021/06/27 09:07:28;;;;;;;10.10;3.40;;;;;;;26.94;42.62;101394.06;1677064;85;21086;-90
2021/06/27 09:10:04;;;;;;;5.50;3.02;;;;;;;26.61;43.09;101397.38;1707606;83;21083;-92
2021/06/27 09:12:46;;;;;;;4.22;3.02;;;;;;;26.29;43.33;101396.05;1677097;85;21074;-87
2021/06/27 09:15:13;;;;;;;4.15;3.20;;;;;;;25.95;43.74;101397.53;1702044;82;21840;-89
2021/06/27 09:17:43;;;;;;;3.45;3.15;;;;;;;25.72;44.35;101402.20;1709182;84;20981;-91
2021/06/27 09:20:11;;;;;;;4.00;3.42;;;;;;;25.58;44.61;101400.77;1709376;83;21024;-87
2021/06/27 09:22:40;;;;;;;5.30;3.30;;;;;;;25.59;44.97;101396.25;1709064;84;21008;-90
2021/06/27 09:25:15;;;;;;;6.90;3.25;;;;;;;25.38;45.08;101392.33;1677139;85;21071;-88
2021/06/27 09:27:43;;;;;;;3.52;3.20;;;;;;;25.28;45.48;101394.83;1709417;82;21729;-93
2021/06/27 09:30:20;;;;;;;3.83;3.15;;;;;;;25.31;45.81;101399.68;1677295;84;21050;-89
2021/06/27 09:33:11;;;;;;;5.03;3.50;;;;;;;25.37;45.98;101407.59;1709787;82;21066;-88
2021/06/27 09:36:06;;;;;;;3.90;3.27;;;;;;;25.08;45.83;101408.32;1696315;83;21508;-91
2021/06/27 09:38:51;;;;;;;4.92;3.30;;;;;;;24.82;46.29;101409.83;1677319;85;21050;-90
2021/06/27 09:41:29;;;;;;;3.67;2.72;;;;;;;24.64;46.58;101407.13;1709559;83;21802;-90
2021/06/27 09:43:57;;;;;;;6.17;3.08;;;;;;;24.53;47.07;101407.84;1707697;83;21071;-87
2021/06/27 09:46:50;;;;;;;3.27;2.90;;;;;;;24.58;47.26;101405.02;1707775;84;21095;-89
2021/06/27 09:49:29;;;;;;;3.42;3.05;;;;;;;24.62;47.25;101402.68;1683273;84;21012;-91
2021/06/27 09:52:12;;;;;;;4.17;3.00;;;;;;;24.59;47.15;101399.61;1707911;84;21074;-88
2021/06/27 09:54:41;;;;;;;4.55;3.10;;;;;;;24.72;47.11;101400.22;1701661;84;21294;-91
2021/06/27 09:57:08;;;;;;;3.50;2.80;;;;;;;24.82;47.21;101401.75;1707796;84;22282;-90
2021/06/27 09:59:39;;;;;;;4.10;3.30;;;;;;;24.90;47.12;101403.38;1708062;84;21123;-92
2021/06/27 10:02:11;;;;;;;3.67;3.02;;;;;;;24.93;47.17;101404.20;1685553;84;21167;-92
2021/06/27 10:04:40;;;;;;;4.42;3.40;;;;;;;25.01;47.31;101398.62;1707939;84;21024;-92
2021/06/27 10:07:07;;;;;;;4.47;3.00;;;;;;;25.15;47.24;101397.83;1707725;84;21785;-91
2021/06/27 10:09:36;;;;;;;5.15;2.83;;;;;;;25.23;47.10;101396.31;1707716;84;21004;-91
2021/06/27 10:12:11;;;;;;;3.10;2.80;;;;;;;25.30;47.12;101395.23;1707419;84;21035;-89
2021/06/27 10:15:00;;;;;;;3.33;3.02;;;;;;;25.44;46.62;101404.77;1707570;84;21084;-84
2021/06/27 10:17:55;;;;;;;5.40;4.03;;;;;;;25.45;46.20;101402.00;1705838;84;21020;-95
2021/06/27 10:20:23;;;;;;;6.00;4.20;;;;;;;25.53;46.11;101393.27;1707175;84;21853;-84
2021/06/27 10:22:50;;;;;;;4.10;3.72;;;;;;;25.78;45.73;101390.77;1707167;83;21150;-85
2021/06/27 10:25:17;;;;;;;4.90;4.50;;;;;;;25.89;45.39;101394.98;1685028;83;21054;-90
2021/06/27 10:27:44;;;;;;;5.85;3.05;;;;;;;26.06;45.00;101395.41;1684291;83;21091;-90
2021/06/27 10:30:12;;;;;;;4.10;3.30;;;;;;;26.16;44.57;101389.27;1687167;84;21584;-89
2021/06/27 10:32:44;;;;;;;5.47;2.90;;;;;;;26.23;44.17;101393.55;1708673;83;21029;-88
2021/06/27 10:35:13;;;;;;;3.75;2.70;;;;;;;26.34;44.31;101393.23;1708942;84;21066;-90
2021/06/27 10:37:42;;;;;;;4.45;3.37;;;;;;;26.46;43.99;101398.71;1708819;84;20935;-87
2021/06/27 10:40:13;;;;;;;5.67;3.85;;;;;;;26.33;43.94;101391.45;1709472;82;21060;-88
2021/06/27 10:43:00;;;;;;;4.78;3.52;;;;;;;26.49;43.95;101391.41;1709436;83;20942;-89
2021/06/27 10:45:50;;;;;;;5.75;4.87;;;;;;;26.70;43.70;101388.52;1711643;83;21821;-88
2021/06/27 10:48:55;;;;;;;6.25;3.45;;;;;;;26.89;43.64;101387.45;1699435;83;21043;-91
2021/06/27 10:51:23;;;;;;;5.42;4.28;;;;;;;26.88;43.08;101383.00;1711113;82;21071;-88
2021/06/27 10:54:15;;;;;;;5.08;4.17;;;;;;;26.76;43.07;101380.68;1674908;83;21055;-92
2021/06/27 10:57:20;;;;;;;7.30;3.20;;;;;;;26.55;43.13;101379.05;1698627;83;21027;-86
2021/06/27 10:59:52;;;;;;;5.50;4.62;;;;;;;26.51;43.29;101387.31;1710707;82;21769;-84
2021/06/27 11:02:42;;;;;;;8.47;3.10;;;;;;;26.52;43.31;101381.88;1723577;82;21028;-82
2021/06/27 11:05:36;;;;;;;4.83;3.75;;;;;;;26.52;43.19;101383.22;1709114;84;21020;-86
2021/06/27 11:08:04;;;;;;;4.50;2.95;;;;;;;26.61;43.32;101383.41;1708729;83;21103;-86
2021/06/27 11:10:33;;;;;;;4.00;3.60;;;;;;;26.89;43.18;101383.88;1709485;84;21181;-86
2021/06/27 11:13:08;;;;;;;6.12;3.22;;;;;;;27.09;43.09;101380.52;1707705;83;21200;-88
2021/06/27 11:15:49;;;;;;;4.20;2.90;;;;;;;27.35;42.83;101378.30;1704090;82;21078;-90
2021/06/27 11:18:35;;;;;;;4.62;3.27;;;;;;;27.56;42.63;101376.64;1674490;85;21088;-86
2021/06/27 11:21:08;;;;;;;4.28;3.10;;;;;;;27.82;42.40;101379.75;1674599;85;21153;-84
2021/06/27 11:23:54;;;;;;;3.30;3.00;;;;;;;28.03;42.11;101377.21;1643715;85;21146;-85
2021/06/27 11:26:43;;;;;;;4.87;2.83;;;;;;;27.95;41.80;101370.73;1674797;84;21715;-82
2021/06/27 11:29:24;;;;;;;3.87;2.90;;;;;;;27.80;41.90;101373.96;1636870;85;21090;-84
2021/06/27 11:32:13;;;;;;;3.95;3.55;;;;;;;27.49;41.37;101370.56;1641075;86;21082;-81
2021/06/27 11:34:57;;;;;;;2.77;2.58;;;;;;;27.20;41.70;101369.31;1643904;85;20997;-81
2021/06/27 11:37:30;;;;;;;3.87;2.72;;;;;;;27.12;41.12;101366.88;1674327;84;22272;-83
2021/06/27 11:40:03;;;;;;;3.52;2.58;;;;;;;27.09;41.06;101365.66;1643973;85;21769;-81